Time;durP1;ratioP1;P1;durP2;ratioP2;P2;SDS_P1;SDS_P2;PMS_P1;PMS_P2;Temp;Humidity;BMP_temperature;BMP_pressure;BME280_temperature;BME280_humidity;BME280_pressure;Samples;Min_cycle;Max_cycle;Signal;HPM_P1;HPM_P2
2022/06/15 00:01:19;;;;;;;11.90;5.50;;;17.60;99.90;;;;;;5049818;28;20424;-56
2022/06/15 00:03:45;;;;;;;12.43;6.10;;;17.60;99.90;;;;;;5048626;28;20401;-56
2022/06/15 00:06:14;;;;;;;11.95;6.63;;;17.50;99.90;;;;;;5050079;28;20386;-55
2022/06/15 00:08:42;;;;;;;10.32;5.60;;;17.40;99.90;;;;;;5049040;28;20401;-55
2022/06/15 00:11:13;;;;;;;12.82;6.32;;;17.30;99.90;;;;;;5049877;28;20464;-56
2022/06/15 00:13:39;;;;;;;11.75;6.25;;;17.30;99.90;;;;;;5048993;28;20398;-56
2022/06/15 00:16:06;;;;;;;12.77;5.82;;;17.20;99.90;;;;;;5049138;28;20421;-55
2022/06/15 00:18:33;;;;;;;9.68;5.53;;;17.20;99.90;;;;;;5048801;28;20398;-55
2022/06/15 00:21:00;;;;;;;11.00;5.90;;;17.20;99.90;;;;;;5049095;28;20396;-56
2022/06/15 00:23:28;;;;;;;12.35;6.35;;;17.20;99.90;;;;;;5049213;28;20406;-56
2022/06/15 00:25:54;;;;;;;11.07;5.82;;;17.20;99.90;;;;;;5048525;28;20669;-55
2022/06/15 00:28:21;;;;;;;14.55;6.03;;;17.10;99.90;;;;;;5049367;28;20394;-55
2022/06/15 00:30:51;;;;;;;11.82;6.07;;;17.00;99.90;;;;;;5048430;28;20906;-55
2022/06/15 00:33:21;;;;;;;11.15;5.90;;;17.00;99.90;;;;;;5043516;28;20440;-55
2022/06/15 00:35:58;;;;;;;13.35;5.80;;;17.00;99.90;;;;;;5047423;28;20416;-55
2022/06/15 00:38:26;;;;;;;12.70;5.60;;;17.00;99.90;;;;;;5049246;28;20393;-56
2022/06/15 00:40:52;;;;;;;11.30;6.55;;;16.90;99.90;;;;;;5047727;28;20467;-55
2022/06/15 00:43:37;;;;;;;14.35;6.10;;;16.90;99.90;;;;;;5048788;28;20786;-55
2022/06/15 00:46:18;;;;;;;10.85;6.20;;;17.10;99.90;;;;;;5049074;28;20401;-55
2022/06/15 00:48:46;;;;;;;9.77;5.40;;;17.20;99.90;;;;;;5048173;28;20429;-55
2022/06/15 00:51:14;;;;;;;11.60;5.80;;;17.20;99.90;;;;;;5048399;28;20386;-55
2022/06/15 00:53:40;;;;;;;10.97;5.90;;;17.10;99.90;;;;;;5048178;28;20885;-55
2022/06/15 00:56:08;;;;;;;10.32;5.40;;;17.20;99.90;;;;;;5030836;28;20417;-55
2022/06/15 00:58:37;;;;;;;9.87;5.37;;;17.10;99.90;;;;;;5048583;28;20429;-54
2022/06/15 01:01:04;;;;;;;9.70;5.50;;;17.10;99.90;;;;;;5032563;28;20882;-56
2022/06/15 01:03:30;;;;;;;11.15;6.10;;;16.90;99.90;;;;;;5048822;28;20746;-55
2022/06/15 01:06:04;;;;;;;11.93;5.80;;;16.80;99.90;;;;;;5048237;28;20409;-55
2022/06/15 01:08:41;;;;;;;13.33;6.60;;;16.70;99.90;;;;;;5048708;28;20519;-57
2022/06/15 01:11:24;;;;;;;12.10;6.00;;;16.70;99.90;;;;;;5049230;28;20377;-55
2022/06/15 01:14:17;;;;;;;10.80;5.90;;;16.70;99.90;;;;;;5048125;28;20750;-55
2022/06/15 01:16:52;;;;;;;15.67;7.23;;;16.70;99.90;;;;;;5047882;28;20413;-56
2022/06/15 01:19:45;;;;;;;10.80;6.10;;;16.70;99.90;;;;;;5049016;28;21041;-56
2022/06/15 01:22:31;;;;;;;12.00;6.97;;;16.70;99.90;;;;;;5030672;28;20813;-56
2022/06/15 01:25:07;;;;;;;13.60;6.50;;;16.70;99.90;;;;;;5047958;28;20413;-55
2022/06/15 01:27:48;;;;;;;13.68;6.40;;;16.60;99.90;;;;;;5048199;28;20795;-55
2022/06/15 01:30:35;;;;;;;12.13;5.80;;;16.60;99.90;;;;;;5048365;28;20439;-56
2022/06/15 01:33:13;;;;;;;13.77;6.50;;;16.60;99.90;;;;;;5048045;28;20401;-59
2022/06/15 01:36:13;;;;;;;14.43;6.55;;;16.50;99.90;;;;;;5047912;28;20413;-59
2022/06/15 01:39:00;;;;;;;11.95;6.78;;;16.50;99.90;;;;;;5031229;28;20897;-58
2022/06/15 01:41:43;;;;;;;13.43;6.80;;;16.50;99.90;;;;;;5048830;28;20400;-63
2022/06/15 01:44:14;;;;;;;12.60;6.73;;;16.60;99.90;;;;;;5048499;28;20408;-59
2022/06/15 01:46:44;;;;;;;11.07;5.80;;;16.60;99.90;;;;;;5047641;28;20831;-60
2022/06/15 01:49:24;;;;;;;11.10;5.95;;;16.60;99.90;;;;;;5048176;28;20397;-56
2022/06/15 01:51:51;;;;;;;11.40;5.60;;;16.50;99.90;;;;;;5029920;28;20801;-56
2022/06/15 01:54:31;;;;;;;10.90;6.35;;;16.40;99.90;;;;;;5048412;28;20486;-56
2022/06/15 01:56:57;;;;;;;10.75;5.97;;;16.30;99.90;;;;;;5045192;28;20485;-55
2022/06/15 01:59:43;;;;;;;11.52;6.40;;;16.30;99.90;;;;;;5048792;28;20417;-56
2022/06/15 02:02:18;;;;;;;13.05;6.10;;;16.30;99.90;;;;;;5048886;28;20389;-56
2022/06/15 02:05:02;;;;;;;11.38;6.80;;;16.00;1.00;;;;;;5050561;28;20396;-55
2022/06/15 02:07:45;;;;;;;10.43;6.28;;;15.80;99.90;;;;;;5051770;28;20397;-56
2022/06/15 02:10:29;;;;;;;14.95;7.47;;;15.60;1.00;;;;;;5047213;28;20394;-55
2022/06/15 02:13:05;;;;;;;12.48;6.72;;;15.40;99.90;;;;;;5051545;28;20566;-56
2022/06/15 02:15:33;;;;;;;12.75;7.20;;;15.30;99.90;;;;;;5051782;28;20428;-56
2022/06/15 02:18:03;;;;;;;12.80;6.90;;;15.10;1.00;;;;;;5051417;28;20463;-55
2022/06/15 02:20:33;;;;;;;11.45;6.95;;;15.20;99.90;;;;;;5051637;28;20916;-56
2022/06/15 02:23:01;;;;;;;15.60;7.65;;;15.10;99.90;;;;;;5050856;28;20957;-55
2022/06/15 02:25:33;;;;;;;15.10;8.10;;;15.10;99.90;;;;;;5051520;28;20766;-55
2022/06/15 02:28:02;;;;;;;13.18;7.80;;;15.00;1.00;;;;;;5050946;28;20398;-55
2022/06/15 02:30:29;;;;;;;15.02;8.52;;;14.90;1.00;;;;;;5051343;28;20768;-55
2022/06/15 02:32:55;;;;;;;12.60;7.72;;;14.90;99.90;;;;;;5050594;28;20501;-56
2022/06/15 02:35:22;;;;;;;12.50;7.57;;;14.90;1.00;;;;;;5051405;28;20393;-62
2022/06/15 02:37:50;;;;;;;13.32;7.93;;;15.00;1.00;;;;;;5050415;28;20423;-61
2022/06/15 02:40:19;;;;;;;14.45;8.20;;;15.10;99.90;;;;;;5051358;28;20431;-55
2022/06/15 02:42:45;;;;;;;14.80;7.90;;;15.00;99.90;;;;;;5050311;28;20397;-55
2022/06/15 02:45:17;;;;;;;15.45;7.93;;;15.00;99.90;;;;;;5046515;28;20437;-55
2022/06/15 02:47:43;;;;;;;16.00;8.10;;;15.00;3.20;;;;;;5041673;28;20393;-55
2022/06/15 02:50:12;;;;;;;13.30;7.70;;;15.00;1.00;;;;;;5050761;28;20386;-59
2022/06/15 02:52:59;;;;;;;14.43;7.53;;;15.00;99.90;;;;;;5049225;28;20420;-56
2022/06/15 02:55:26;;;;;;;13.38;7.60;;;15.00;99.90;;;;;;5036332;28;20437;-55
2022/06/15 02:58:08;;;;;;;12.67;7.27;;;15.00;99.90;;;;;;5050596;28;20393;-55
2022/06/15 03:00:34;;;;;;;11.38;6.93;;;15.00;99.90;;;;;;5050781;28;20451;-55
2022/06/15 03:03:00;;;;;;;12.20;7.25;;;15.00;1.00;;;;;;5050241;28;20397;-61
2022/06/15 03:05:26;;;;;;;13.40;7.47;;;15.00;1.00;;;;;;5050364;28;20439;-63
2022/06/15 03:07:51;;;;;;;12.80;6.90;;;15.10;1.00;;;;;;5050392;28;20893;-56
2022/06/15 03:10:17;;;;;;;13.00;6.60;;;15.30;1.00;;;;;;5051212;28;20951;-55
2022/06/15 03:12:42;;;;;;;13.77;7.07;;;15.30;99.90;;;;;;5049959;28;20385;-55
2022/06/15 03:15:10;;;;;;;12.63;7.15;;;15.40;99.90;;;;;;5050716;28;20397;-55
2022/06/15 03:17:36;;;;;;;12.97;6.43;;;15.30;99.90;;;;;;5050159;28;20471;-55
2022/06/15 03:20:01;;;;;;;13.20;7.40;;;15.20;1.00;;;;;;5049815;28;20435;-56
2022/06/15 03:22:27;;;;;;;12.70;7.27;;;15.20;1.00;;;;;;5050063;28;20455;-55
2022/06/15 03:24:52;;;;;;;15.43;8.25;;;15.10;99.90;;;;;;5050026;28;20384;-55
2022/06/15 03:27:18;;;;;;;13.83;7.80;;;15.10;29.00;;;;;;5050713;28;20491;-56
2022/06/15 03:29:45;;;;;;;12.77;7.40;;;14.90;99.90;;;;;;5049939;28;20404;-55
2022/06/15 03:32:14;;;;;;;13.38;8.18;;;15.00;99.90;;;;;;5050195;28;20421;-55
2022/06/15 03:34:39;;;;;;;12.80;7.70;;;15.00;99.90;;;;;;5049724;28;20455;-55
2022/06/15 03:37:05;;;;;;;17.02;8.88;;;15.00;99.90;;;;;;5050337;28;20409;-55
2022/06/15 03:39:30;;;;;;;13.87;8.00;;;14.90;99.90;;;;;;5050153;28;20464;-55
2022/06/15 03:42:06;;;;;;;14.97;9.00;;;14.90;1.00;;;;;;5049863;28;20377;-55
2022/06/15 03:44:32;;;;;;;14.70;8.40;;;14.90;1.00;;;;;;5049783;28;20831;-55
2022/06/15 03:46:58;;;;;;;13.53;8.13;;;15.00;1.00;;;;;;5049501;28;20398;-55
2022/06/15 03:49:23;;;;;;;14.60;8.30;;;15.00;1.00;;;;;;5050053;28;20389;-55
2022/06/15 03:51:49;;;;;;;15.25;8.40;;;15.00;1.00;;;;;;5049226;28;20396;-56
2022/06/15 03:54:14;;;;;;;14.70;8.60;;;15.00;1.00;;;;;;5049921;28;20805;-55
2022/06/15 03:56:46;;;;;;;14.77;7.67;;;15.00;99.90;;;;;;5048569;28;20405;-55
2022/06/15 03:59:12;;;;;;;15.50;8.32;;;15.00;1.00;;;;;;5050229;28;20459;-55
2022/06/15 04:01:37;;;;;;;14.60;7.93;;;15.10;1.00;;;;;;5049273;28;20486;-55
2022/06/15 04:04:04;;;;;;;16.55;9.18;;;15.10;1.00;;;;;;5049086;28;20731;-55
2022/06/15 04:06:29;;;;;;;14.03;8.47;;;15.10;1.00;;;;;;5049656;28;20397;-56
2022/06/15 04:08:55;;;;;;;16.80;7.88;;;15.20;1.00;;;;;;5049034;28;20481;-56
2022/06/15 04:14:06;;;;;;;13.15;8.07;;;15.20;1.00;;;;;;5032462;28;20437;-56
2022/06/15 04:16:34;;;;;;;14.17;8.17;;;15.40;99.90;;;;;;5049751;28;20409;-63
2022/06/15 04:19:02;;;;;;;17.33;8.25;;;15.50;99.90;;;;;;5048687;28;20405;-56
2022/06/15 04:21:28;;;;;;;13.90;7.60;;;15.50;99.90;;;;;;5049084;28;20747;-56
2022/06/15 04:23:54;;;;;;;16.85;7.90;;;15.70;1.00;;;;;;5048701;28;20421;-55
2022/06/15 04:26:19;;;;;;;13.68;7.57;;;15.70;1.00;;;;;;5048152;28;20488;-56
2022/06/15 04:28:45;;;;;;;11.70;7.47;;;15.80;1.00;;;;;;5048548;28;20389;-56
2022/06/15 04:31:11;;;;;;;11.43;7.05;;;15.90;1.00;;;;;;5049205;28;20385;-56
2022/06/15 04:33:36;;;;;;;12.18;7.15;;;16.00;1.00;;;;;;5049158;28;21280;-57
2022/06/15 04:36:02;;;;;;;13.00;7.80;;;16.10;1.00;;;;;;5048772;28;20412;-69
2022/06/15 04:38:28;;;;;;;13.55;7.68;;;16.20;99.90;;;;;;5049327;28;20417;-67
2022/06/15 04:40:54;;;;;;;12.87;7.77;;;16.30;99.90;;;;;;5048050;28;20393;-65
2022/06/15 04:43:20;;;;;;;12.77;7.80;;;16.40;99.90;;;;;;5049124;28;20393;-65
2022/06/15 04:45:45;;;;;;;14.40;7.70;;;16.50;99.90;;;;;;5047903;28;20916;-62
2022/06/15 04:48:11;;;;;;;14.90;7.20;;;16.70;99.90;;;;;;5047364;28;20458;-56
2022/06/15 04:50:38;;;;;;;12.20;7.70;;;17.00;99.90;;;;;;5038048;28;20376;-55
2022/06/15 04:53:05;;;;;;;13.70;7.65;;;17.20;99.90;;;;;;5043952;28;20923;-56
2022/06/15 04:55:31;;;;;;;14.50;6.90;;;17.60;29.00;;;;;;5041884;28;20513;-54
2022/06/15 04:57:59;;;;;;;15.40;8.00;;;18.40;1.00;;;;;;5043494;28;20389;-54
2022/06/15 05:00:29;;;;;;;12.88;7.43;;;19.90;1.00;;;;;;5049347;28;20893;-56
2022/06/15 05:02:55;;;;;;;16.77;7.68;;;21.50;1.00;;;;;;5047873;28;20455;-54
2022/06/15 05:05:21;;;;;;;14.80;7.30;;;23.30;99.90;;;;;;5049231;28;20377;-55
2022/06/15 05:07:46;;;;;;;12.13;7.23;;;24.70;99.90;;;;;;5048062;28;20393;-57
2022/06/15 05:10:21;;;;;;;14.13;7.73;;;25.80;99.90;;;;;;5049070;28;20400;-57
2022/06/15 05:12:47;;;;;;;14.52;7.63;;;27.10;99.90;;;;;;5037634;28;20862;-55
2022/06/15 05:15:14;;;;;;;13.63;8.40;;;28.30;99.90;;;;;;5049150;28;20408;-55
2022/06/15 05:17:45;;;;;;;13.63;8.77;;;28.80;99.90;;;;;;5047740;28;20393;-55
2022/06/15 05:20:14;;;;;;;14.45;9.63;;;29.30;99.90;;;;;;5038640;28;20401;-55
2022/06/15 05:22:40;;;;;;;12.43;9.20;;;30.00;99.90;;;;;;5047727;28;20402;-55
2022/06/15 05:25:08;;;;;;;14.00;9.25;;;30.20;99.90;;;;;;5048830;28;20424;-56
2022/06/15 05:27:36;;;;;;;13.17;9.97;;;30.50;99.90;;;;;;5048845;28;20401;-55
2022/06/15 05:30:03;;;;;;;12.70;9.68;;;30.50;99.90;;;;;;5047555;28;20397;-55
2022/06/15 05:32:29;;;;;;;13.00;10.73;;;30.50;99.90;;;;;;5048650;28;20393;-56
2022/06/15 05:34:55;;;;;;;13.40;9.70;;;30.20;99.90;;;;;;5047839;28;20469;-55
2022/06/15 05:37:21;;;;;;;13.10;8.70;;;30.30;99.90;;;;;;5049682;28;20496;-55
2022/06/15 05:39:48;;;;;;;15.00;9.40;;;30.10;99.90;;;;;;5051627;28;20484;-56
2022/06/15 05:42:14;;;;;;;14.27;9.13;;;30.20;99.90;;;;;;5052292;28;20466;-55
2022/06/15 05:47:06;;;;;;;12.57;9.30;;;30.70;99.90;;;;;;5052412;28;20746;-55
2022/06/15 05:49:34;;;;;;;13.05;9.60;;;30.60;99.90;;;;;;5052006;28;20405;-55
2022/06/15 05:52:01;;;;;;;12.20;9.20;;;30.90;99.90;;;;;;5051587;28;20855;-55
2022/06/15 05:54:27;;;;;;;11.57;8.57;;;30.40;99.90;;;;;;5051939;28;20447;-55
2022/06/15 05:56:52;;;;;;;13.52;8.70;;;30.90;99.90;;;;;;5051166;28;20933;-55
2022/06/15 05:59:18;;;;;;;14.53;9.00;;;30.60;99.90;;;;;;5051297;28;20743;-55
2022/06/15 06:01:44;;;;;;;13.60;8.10;;;29.40;99.90;;;;;;5050076;28;20424;-55
2022/06/15 06:04:15;;;;;;;10.90;8.02;;;29.10;99.90;;;;;;5049635;28;20409;-55
2022/06/15 06:06:41;;;;;;;11.73;7.25;;;29.00;99.90;;;;;;5048028;28;20890;-55
2022/06/15 06:09:07;;;;;;;14.23;7.40;;;29.60;99.90;;;;;;5052181;28;20450;-56
2022/06/15 06:11:33;;;;;;;12.15;7.95;;;29.80;99.90;;;;;;5051491;28;20858;-56
2022/06/15 06:13:59;;;;;;;14.30;8.02;;;30.10;99.90;;;;;;5050885;28;20400;-55
2022/06/15 06:16:25;;;;;;;11.95;7.85;;;30.70;99.90;;;;;;5051598;28;20739;-56
2022/06/15 06:18:51;;;;;;;11.80;7.63;;;31.10;99.90;;;;;;5049975;28;20871;-56
2022/06/15 06:21:17;;;;;;;10.05;6.97;;;30.70;99.90;;;;;;5051168;28;20444;-55
2022/06/15 06:23:43;;;;;;;13.13;7.22;;;30.20;99.90;;;;;;5050472;28;20528;-55
2022/06/15 06:26:33;;;;;;;10.97;7.77;;;29.70;99.90;;;;;;5051213;28;20463;-56
2022/06/15 06:29:00;;;;;;;11.40;7.70;;;30.10;99.90;;;;;;5058866;28;20383;-56
2022/06/15 06:31:27;;;;;;;10.23;7.30;;;30.10;99.90;;;;;;5059646;28;20880;-55
2022/06/15 06:33:53;;;;;;;11.32;8.05;;;30.40;99.90;;;;;;5050072;28;20385;-55
2022/06/15 06:36:21;;;;;;;11.18;8.50;;;30.80;99.90;;;;;;5050861;28;20445;-56
2022/06/15 06:38:47;;;;;;;12.40;8.00;;;31.50;99.90;;;;;;5050314;28;20425;-55
2022/06/15 06:41:24;;;;;;;10.98;7.40;;;31.30;99.90;;;;;;5050710;28;20771;-56
2022/06/15 06:43:50;;;;;;;11.23;7.30;;;31.20;99.90;;;;;;5037744;28;20469;-55
2022/06/15 06:46:16;;;;;;;14.23;7.60;;;31.80;99.90;;;;;;5051611;28;20918;-56
2022/06/15 06:48:42;;;;;;;10.85;7.55;;;32.20;1.00;;;;;;5051624;28;20378;-55
2022/06/15 06:51:08;;;;;;;12.93;8.20;;;32.10;1.00;;;;;;5049273;28;20932;-56
2022/06/15 06:53:35;;;;;;;10.30;6.10;;;32.60;1.00;;;;;;5050342;28;20521;-56
2022/06/15 06:56:06;;;;;;;15.00;6.13;;;33.60;1.00;;;;;;5049703;28;20411;-56
2022/06/15 06:58:32;;;;;;;12.57;9.13;;;33.00;1.00;;;;;;5050496;28;20390;-60
2022/06/15 07:00:58;;;;;;;11.38;5.53;;;32.50;1.00;;;;;;5050582;28;20493;-61
2022/06/15 07:03:24;;;;;;;10.82;5.53;;;32.80;1.00;;;;;;5058547;28;20391;-61
2022/06/15 07:05:50;;;;;;;11.63;6.00;;;33.20;1.00;;;;;;5054014;28;20534;-61
2022/06/15 07:08:16;;;;;;;13.80;6.50;;;33.10;1.00;;;;;;5067478;28;20469;-58
2022/06/15 07:10:42;;;;;;;10.50;6.00;;;33.50;1.00;;;;;;5049937;28;20393;-54
2022/06/15 07:13:08;;;;;;;14.00;5.80;;;34.00;1.00;;;;;;5049614;28;20913;-61
2022/06/15 07:15:34;;;;;;;9.90;6.33;;;34.20;1.00;;;;;;5050206;28;20409;-60
2022/06/15 07:18:01;;;;;;;10.48;5.80;;;33.60;1.00;;;;;;5048884;28;21020;-60
2022/06/15 07:20:29;;;;;;;11.50;4.82;;;33.80;1.00;;;;;;5050872;28;20378;-60
2022/06/15 07:22:55;;;;;;;10.90;4.90;;;33.90;1.00;;;;;;5049346;28;20402;-60
2022/06/15 07:25:22;;;;;;;8.95;5.28;;;34.50;1.00;;;;;;5050049;28;20859;-61
2022/06/15 07:27:48;;;;;;;11.68;5.82;;;;;;;;;;5049774;28;20389;-60
2022/06/15 07:30:20;;;;;;;9.27;6.45;;;36.20;99.90;;;;;;5050312;28;20746;-60
2022/06/15 07:32:46;;;;;;;11.50;9.13;;;37.00;99.90;;;;;;5049599;28;20384;-61
2022/06/15 07:35:19;;;;;;;9.70;5.23;;;37.90;99.90;;;;;;5050514;28;20676;-59
2022/06/15 07:37:45;;;;;;;8.60;3.88;;;38.40;99.90;;;;;;5049296;28;20870;-61
2022/06/15 07:40:12;;;;;;;8.90;4.78;;;37.90;99.90;;;;;;5050084;28;20389;-60
2022/06/15 07:42:38;;;;;;;8.65;4.50;;;37.50;99.90;;;;;;5050201;28;20378;-59
2022/06/15 07:45:05;;;;;;;9.27;5.03;;;37.40;99.90;;;;;;5049865;28;20377;-60
2022/06/15 07:50:16;;;;;;;9.35;5.60;;;37.60;99.90;;;;;;5034698;28;20406;-60
2022/06/15 07:52:44;;;;;;;9.33;4.90;;;37.70;99.90;;;;;;5036752;28;20421;-55
2022/06/15 07:55:13;;;;;;;10.40;5.50;;;38.60;99.90;;;;;;5049361;28;20394;-60
2022/06/15 07:57:39;;;;;;;10.00;6.03;;;38.50;99.90;;;;;;5049307;28;20436;-55
2022/06/15 08:00:07;;;;;;;10.10;8.40;;;37.00;99.90;;;;;;5049020;28;20417;-59
2022/06/15 08:02:33;;;;;;;10.82;8.20;;;36.40;99.90;;;;;;5049505;28;20780;-60
2022/06/15 08:04:59;;;;;;;9.93;6.57;;;36.90;99.90;;;;;;5048717;28;20390;-59
2022/06/15 08:07:25;;;;;;;9.40;5.40;;;37.70;99.90;;;;;;5049276;28;20438;-58
2022/06/15 08:09:51;;;;;;;9.20;4.57;;;37.70;99.90;;;;;;5049092;28;20746;-60
2022/06/15 08:12:19;;;;;;;9.30;5.40;;;37.30;99.90;;;;;;5049362;28;20388;-60
2022/06/15 08:14:47;;;;;;;8.97;4.97;;;37.70;99.90;;;;;;5048527;28;20377;-60
2022/06/15 08:17:18;;;;;;;9.85;5.20;;;37.20;99.90;;;;;;5048939;28;20458;-60
2022/06/15 08:19:49;;;;;;;7.90;4.40;;;36.90;99.90;;;;;;5048976;28;20843;-59
2022/06/15 08:22:14;;;;;;;9.32;5.30;;;36.90;99.90;;;;;;5048989;28;20410;-60
2022/06/15 08:24:42;;;;;;;7.43;4.30;;;38.10;99.90;;;;;;5049488;28;20419;-55
2022/06/15 08:27:11;;;;;;;8.83;5.00;;;38.10;99.90;;;;;;5049384;28;20471;-60
2022/06/15 08:29:38;;;;;;;10.05;4.80;;;37.80;99.90;;;;;;5049577;28;20393;-60
2022/06/15 08:32:04;;;;;;;9.27;4.60;;;37.40;99.90;;;;;;5048716;28;20380;-61
2022/06/15 08:34:32;;;;;;;11.45;4.90;;;37.20;99.90;;;;;;5049698;28;20858;-60
2022/06/15 08:36:58;;;;;;;8.82;5.10;;;37.30;99.90;;;;;;5048675;28;20405;-60
2022/06/15 08:39:24;;;;;;;10.90;4.77;;;37.90;99.90;;;;;;5049238;28;20423;-60
2022/06/15 08:42:29;;;;;;;11.00;5.40;;;38.70;99.90;;;;;;5048851;28;20390;-61
2022/06/15 08:45:27;;;;;;;9.55;4.82;;;39.20;99.90;;;;;;5048628;28;20396;-60
2022/06/15 08:48:01;;;;;;;10.68;6.45;;;38.90;99.90;;;;;;5039595;28;20413;-59
2022/06/15 08:50:33;;;;;;;9.13;4.80;;;39.20;99.90;;;;;;5049339;28;20409;-60
2022/06/15 08:53:21;;;;;;;9.50;4.93;;;39.60;99.90;;;;;;5048341;28;20396;-60
2022/06/15 08:56:06;;;;;;;8.52;4.95;;;39.50;99.90;;;;;;5048676;28;20783;-60
2022/06/15 08:58:45;;;;;;;11.45;8.95;;;38.40;99.90;;;;;;5049254;28;20457;-60
2022/06/15 09:01:40;;;;;;;11.82;10.63;;;37.40;99.90;;;;;;5049387;28;20377;-59
2022/06/15 09:04:05;;;;;;;8.35;4.70;;;36.70;99.90;;;;;;5047727;28;20400;-61
2022/06/15 09:06:49;;;;;;;10.20;4.88;;;36.90;99.90;;;;;;5049366;28;20740;-61
2022/06/15 09:09:24;;;;;;;8.00;4.63;;;37.80;99.90;;;;;;5049223;28;20374;-61
2022/06/15 09:11:53;;;;;;;10.35;4.90;;;38.90;99.90;;;;;;5048748;28;20388;-59
2022/06/15 09:14:41;;;;;;;9.50;4.70;;;39.00;99.90;;;;;;5033920;28;20752;-61
2022/06/15 09:17:13;;;;;;;9.63;4.25;;;38.50;99.90;;;;;;5051955;28;20428;-61
2022/06/15 09:19:48;;;;;;;12.25;5.40;;;39.00;99.90;;;;;;5052968;28;20411;-61
2022/06/15 09:22:29;;;;;;;9.30;6.15;;;38.90;99.90;;;;;;5053102;28;20980;-60
2022/06/15 09:25:13;;;;;;;8.38;4.70;;;38.40;99.90;;;;;;5051752;28;20398;-60
2022/06/15 09:27:47;;;;;;;8.35;4.43;;;37.70;99.90;;;;;;5052866;28;20890;-61
2022/06/15 09:30:27;;;;;;;9.17;4.60;;;37.80;99.90;;;;;;5053337;28;20385;-60
2022/06/15 09:33:29;;;;;;;9.50;4.53;;;37.30;99.90;;;;;;5052049;28;20874;-61
2022/06/15 09:36:03;;;;;;;10.15;4.90;;;37.30;99.90;;;;;;5051668;28;20409;-61
2022/06/15 09:38:31;;;;;;;10.68;5.38;;;38.50;99.90;;;;;;5052776;28;20405;-61
2022/06/15 09:41:16;;;;;;;11.05;4.20;;;39.30;99.90;;;;;;5051882;28;20396;-61
2022/06/15 09:44:14;;;;;;;10.40;4.80;;;38.50;99.90;;;;;;5052297;28;20373;-55
2022/06/15 09:47:04;;;;;;;16.30;5.25;;;38.50;99.90;;;;;;5052727;28;20423;-60
2022/06/15 09:49:55;;;;;;;10.05;5.75;;;37.30;99.90;;;;;;5052586;28;20373;-60
2022/06/15 09:52:28;;;;;;;9.50;8.10;;;36.20;99.90;;;;;;5051594;28;20408;-61
2022/06/15 09:55:08;;;;;;;9.20;7.20;;;35.70;99.90;;;;;;5051441;28;20397;-61
2022/06/15 09:57:39;;;;;;;8.73;7.83;;;35.80;99.90;;;;;;5051931;28;20412;-60
2022/06/15 10:00:07;;;;;;;10.80;8.52;;;34.90;99.90;;;;;;5051538;28;20433;-61
2022/06/15 10:02:36;;;;;;;10.80;8.18;;;35.00;99.90;;;;;;5052036;28;20389;-60
2022/06/15 10:05:05;;;;;;;10.23;7.85;;;35.40;99.90;;;;;;5051622;28;20488;-61
2022/06/15 10:07:36;;;;;;;10.90;8.30;;;35.80;99.90;;;;;;5051801;28;21087;-61
2022/06/15 10:10:46;;;;;;;8.43;7.53;;;35.80;99.90;;;;;;5051078;28;20636;-61
2022/06/15 10:13:15;;;;;;;9.35;5.68;;;36.60;99.90;;;;;;4970720;28;20410;-62
2022/06/15 10:15:40;;;;;;;8.60;4.13;;;37.30;99.90;;;;;;4971065;28;20431;-61
2022/06/15 10:18:24;;;;;;;11.27;4.80;;;37.10;99.90;;;;;;5002003;28;20387;-61
2022/06/15 10:21:03;;;;;;;13.93;5.03;;;37.40;99.90;;;;;;5031447;28;20387;-61
2022/06/15 10:23:39;;;;;;;10.00;4.32;;;37.10;99.90;;;;;;5030670;28;20891;-62
2022/06/15 10:26:08;;;;;;;12.45;9.30;;;36.30;99.90;;;;;;5031231;28;20383;-61
2022/06/15 10:28:40;;;;;;;10.80;7.93;;;33.80;99.90;;;;;;5031768;28;20383;-61
2022/06/15 10:31:13;;;;;;;9.90;8.38;;;33.60;99.90;;;;;;5030854;28;20474;-61
2022/06/15 10:33:43;;;;;;;10.18;8.70;;;34.10;99.90;;;;;;5031627;28;20387;-62
2022/06/15 10:36:31;;;;;;;9.05;7.60;;;33.70;99.90;;;;;;5031763;28;20407;-61
2022/06/15 10:39:42;;;;;;;9.88;8.27;;;33.30;99.90;;;;;;5031157;28;20441;-57
2022/06/15 10:42:20;;;;;;;9.20;8.20;;;33.40;99.90;;;;;;5028007;28;20417;-62
2022/06/15 10:44:57;;;;;;;9.85;8.85;;;33.60;99.90;;;;;;5029572;28;21263;-55
2022/06/15 10:47:49;;;;;;;10.90;8.53;;;33.40;99.90;;;;;;5031459;28;20485;-61
2022/06/15 10:50:23;;;;;;;10.90;8.52;;;33.20;99.90;;;;;;5031466;28;20383;-62
2022/06/15 10:52:55;;;;;;;10.97;8.90;;;33.30;99.90;;;;;;5030225;28;20407;-62
2022/06/15 11:04:19;;;;;;;9.45;7.80;;;32.90;99.90;;;;;;5031070;28;20813;-62
2022/06/15 11:07:04;;;;;;;9.45;7.65;;;33.00;99.90;;;;;;5030840;28;20398;-54
2022/06/15 11:09:37;;;;;;;15.02;8.70;;;32.70;99.90;;;;;;5031209;28;20415;-63
2022/06/15 11:12:31;;;;;;;10.68;8.30;;;32.70;99.90;;;;;;5030197;28;20395;-62
2022/06/15 11:15:01;;;;;;;10.15;8.60;;;32.90;99.90;;;;;;5039798;28;20425;-63
2022/06/15 11:20:34;;;;;;;9.90;8.00;;;33.50;99.90;;;;;;5048002;28;20495;-61
2022/06/15 11:23:14;;;;;;;9.77;7.60;;;33.70;99.90;;;;;;5040980;28;20755;-62
2022/06/15 11:25:49;;;;;;;13.43;8.90;;;33.80;99.90;;;;;;5050540;28;20396;-62
2022/06/15 11:28:37;;;;;;;8.98;7.55;;;34.00;99.90;;;;;;5048837;28;20431;-63
2022/06/15 11:31:12;;;;;;;10.00;7.72;;;34.00;99.90;;;;;;5038709;28;20395;-63
2022/06/15 11:33:52;;;;;;;13.25;9.10;;;33.70;99.90;;;;;;5040645;28;20465;-65
2022/06/15 11:36:34;;;;;;;8.45;7.00;;;33.70;99.90;;;;;;5050269;28;20401;-63
2022/06/15 11:39:09;;;;;;;10.00;7.53;;;33.50;99.90;;;;;;5049499;28;20816;-64
2022/06/15 11:41:44;;;;;;;11.48;8.13;;;33.20;99.90;;;;;;5050413;28;20877;-67
2022/06/15 11:44:20;;;;;;;8.32;7.22;;;33.30;99.90;;;;;;5049790;28;20465;-66
2022/06/15 11:46:55;;;;;;;8.93;8.00;;;33.40;99.90;;;;;;5049353;28;20414;-57
2022/06/15 11:49:55;;;;;;;8.65;7.70;;;33.60;99.90;;;;;;5049086;28;20393;-61
2022/06/15 11:52:49;;;;;;;10.20;8.13;;;33.80;99.90;;;;;;5024128;28;20463;-67
2022/06/15 11:55:27;;;;;;;9.63;8.32;;;33.40;99.90;;;;;;5030103;28;20423;-67
2022/06/15 11:58:22;;;;;;;9.73;7.50;;;33.00;99.90;;;;;;5027689;28;20691;-65
2022/06/15 12:01:06;;;;;;;12.82;7.50;;;33.10;99.90;;;;;;5029300;28;20474;-55
2022/06/15 12:03:50;;;;;;;10.63;9.10;;;33.30;99.90;;;;;;5064394;28;20918;-66
2022/06/15 12:06:25;;;;;;;10.55;7.65;;;33.60;99.90;;;;;;5070037;28;20388;-63
2022/06/15 12:09:00;;;;;;;10.80;7.45;;;33.00;99.90;;;;;;5069146;28;20458;-66
2022/06/15 12:14:55;;;;;;;9.47;7.50;;;33.00;99.90;;;;;;5055471;28;20405;-63
2022/06/15 12:17:27;;;;;;;9.93;8.30;;;33.50;99.90;;;;;;5049943;28;20408;-64
2022/06/15 12:20:26;;;;;;;9.40;7.20;;;32.80;99.90;;;;;;5048854;28;20888;-66
2022/06/15 12:23:03;;;;;;;10.38;6.90;;;32.90;99.90;;;;;;5048542;28;20488;-63
2022/06/15 12:25:59;;;;;;;8.90;7.07;;;33.10;99.90;;;;;;5049228;28;20398;-64
2022/06/15 12:28:29;;;;;;;9.10;7.90;;;33.20;99.90;;;;;;5049280;28;20381;-63
2022/06/15 12:31:13;;;;;;;9.70;7.57;;;32.90;99.90;;;;;;5048547;28;20393;-63
2022/06/15 12:34:06;;;;;;;9.55;7.30;;;33.00;99.90;;;;;;5048565;28;20815;-64
2022/06/15 12:36:45;;;;;;;8.75;6.90;;;33.10;99.90;;;;;;5047853;28;20890;-65
2022/06/15 12:39:45;;;;;;;8.75;7.00;;;33.30;99.90;;;;;;5042834;28;20531;-63
2022/06/15 12:42:14;;;;;;;7.88;6.90;;;33.30;99.90;;;;;;5028990;28;20391;-65
2022/06/15 12:44:45;;;;;;;9.25;7.20;;;33.40;99.90;;;;;;5037795;28;20438;-65
2022/06/15 12:47:16;;;;;;;9.85;7.40;;;33.20;99.90;;;;;;5051711;28;20945;-67
2022/06/15 12:50:03;;;;;;;10.27;7.57;;;32.50;99.90;;;;;;5057771;28;20385;-66
2022/06/15 12:52:57;;;;;;;9.52;7.50;;;32.70;99.90;;;;;;5064921;28;20944;-62
2022/06/15 12:55:23;;;;;;;9.32;7.00;;;32.80;99.90;;;;;;5047823;28;20401;-62
2022/06/15 12:58:13;;;;;;;10.03;7.30;;;33.00;99.90;;;;;;5047859;28;20409;-57
2022/06/15 13:00:50;;;;;;;8.50;7.60;;;33.00;99.90;;;;;;5044013;28;20469;-59
2022/06/15 13:03:48;;;;;;;8.77;7.70;;;33.70;99.90;;;;;;5029405;28;20930;-60
2022/06/15 13:06:30;;;;;;;10.30;7.00;;;33.00;99.90;;;;;;5028933;28;20848;-60
2022/06/15 13:09:14;;;;;;;10.00;7.40;;;32.80;99.90;;;;;;5028457;28;20391;-60
2022/06/15 13:12:04;;;;;;;8.57;7.68;;;33.10;99.90;;;;;;5029237;28;20383;-59
2022/06/15 13:14:40;;;;;;;10.70;8.25;;;33.20;99.90;;;;;;5042766;28;20394;-61
2022/06/15 13:17:06;;;;;;;9.68;8.07;;;33.30;99.90;;;;;;5048303;28;20405;-60
2022/06/15 13:19:39;;;;;;;9.65;7.00;;;33.50;99.90;;;;;;5048871;28;20467;-61
2022/06/15 13:22:07;;;;;;;8.98;8.07;;;33.70;99.90;;;;;;5048118;28;20531;-61
2022/06/15 13:24:51;;;;;;;9.43;7.87;;;33.50;99.90;;;;;;5048213;28;20846;-61
2022/06/15 13:27:30;;;;;;;9.40;7.53;;;32.80;99.90;;;;;;5047241;28;20827;-61
2022/06/15 13:30:20;;;;;;;10.23;8.60;;;32.40;99.90;;;;;;5047382;28;20373;-60
2022/06/15 13:32:51;;;;;;;9.40;8.50;;;32.30;99.90;;;;;;5048014;28;20390;-56